KCLT

Charlotte / Douglas International Airport

Charlotte, North Carolina, USA
KCLT 170157Z 1702/1806 15006KT P6SM SCT250 FM171000 07005KT P6SM FEW030 BKN250 FM171700 16005KT P6SM SCT060 BKN120 PROB30 1721/1803 4SM -RA SCT025 BKN060 FM180300 20005KT P6SM BKN026 PROB30 1803/1806 4SM -RA OVC015
Issued Valid From Valid To
Jan-17 @ 01:57 UTC
(3 hours ago)
Jan-17 @ 02:00 UTC
(3 hours ago)
Jan-18 @ 06:00 UTC
(-1 days ago)
Jan-17 @ 02:00 to Jan-17 @ 10:00
KCLT 170157Z 1702/1806 15006KT P6SM SCT250
Wind Visibility Clouds
150° at 6 knots Greater than 6 miles
  • Scattered at 25,000' AGL
From Jan-17 @ 10:00 to Jan-17 @ 17:00
FM171000 07005KT P6SM FEW030 BKN250
Wind Visibility Clouds
70° at 5 knots Greater than 6 miles
  • Few at 3,000' AGL
  • Broken at 25,000' AGL
From Jan-17 @ 17:00 to Jan-18 @ 03:00
FM171700 16005KT P6SM SCT060 BKN120
Wind Visibility Clouds
160° at 5 knots Greater than 6 miles
  • Scattered at 6,000' AGL
  • Broken at 12,000' AGL
Probable  (Probability 30%) Jan-17 @ 21:00 to Jan-18 @ 03:00
PROB30 1721/1803 4SM -RA SCT025 BKN060
Visibility Clouds Conditions
4 miles
  • Scattered at 2,500' AGL
  • Broken at 6,000' AGL
  • Light Rain
Probable  (Probability 30%) Jan-18 @ 03:00 to Jan-18 @ 06:00
PROB30 1803/1806 4SM -RA OVC015
Visibility Clouds Conditions
4 miles
  • Overcast at 1,500' AGL
  • Light Rain
From Jan-18 @ 03:00 to Jan-18 @ 06:00
FM180300 20005KT P6SM BKN026
Wind Visibility Clouds
200° at 5 knots Greater than 6 miles
  • Broken at 2,600' AGL
KCLT 170157Z 1702/1806 15006KT P6SM SCT250 FM171000 07005KT P6SM FEW030 BKN250 FM171700 16005KT P6SM SCT060 BKN120 PROB30 1721/1803 4SM -RA SCT025 BKN060 FM180300 20005KT P6SM BKN026 PROB30 1803/1806 4SM -RA OVC015
Issued Jan-17 @ 01:57 UTC
(3 hours ago)
Valid From Jan-17 @ 02:00 UTC
(3 hours ago)
Valid To Jan-18 @ 06:00 UTC
(-1 days ago)
Jan-17 @ 02:00 - Jan-17 @ 10:00
Wind Visibility
150° at 6 knots Greater than 6 miles
Clouds
  • Scattered at 25,000' AGL
From Jan-17 @ 10:00 - Jan-17 @ 17:00
Wind Visibility
70° at 5 knots Greater than 6 miles
Clouds
  • Few at 3,000' AGL
  • Broken at 25,000' AGL
From Jan-17 @ 17:00 - Jan-18 @ 03:00
Wind Visibility
160° at 5 knots Greater than 6 miles
Clouds
  • Scattered at 6,000' AGL
  • Broken at 12,000' AGL
Probability 30% Probable Jan-17 @ 21:00 - Jan-18 @ 03:00
Clouds
  • Scattered at 2,500' AGL
  • Broken at 6,000' AGL
Conditions
  • Light Rain
Probability 30% Probable Jan-18 @ 03:00 - Jan-18 @ 06:00
Clouds
  • Overcast at 1,500' AGL
Conditions
  • Light Rain
From Jan-18 @ 03:00 - Jan-18 @ 06:00
Wind Visibility
200° at 5 knots Greater than 6 miles
Clouds
  • Broken at 2,600' AGL